Time;durP1;ratioP1;P1;durP2;ratioP2;P2;SDS_P1;SDS_P2;PMS_P1;PMS_P2;Temp;Humidity;BMP_temperature;BMP_pressure;BME280_temperature;BME280_humidity;BME280_pressure;Samples;Min_cycle;Max_cycle;Signal;HPM_P1;HPM_P2
2023/05/09 00:00:05;;;;;;;46.80;25.08;;;14.90;99.90;;;;;;5091093;28;20048;-76
2023/05/09 00:02:33;;;;;;;43.58;23.95;;;14.90;99.90;;;;;;5091115;28;20125;-76
2023/05/09 00:05:02;;;;;;;44.65;23.70;;;15.00;99.90;;;;;;5091170;28;20138;-76
2023/05/09 00:07:28;;;;;;;46.10;24.65;;;15.00;99.90;;;;;;5108213;28;20446;-76
2023/05/09 00:09:54;;;;;;;43.58;23.80;;;15.00;99.90;;;;;;5091105;28;20152;-76
2023/05/09 00:12:20;;;;;;;44.17;22.75;;;15.10;99.90;;;;;;5060537;28;20082;-76
2023/05/09 00:14:49;;;;;;;48.30;24.48;;;15.10;99.90;;;;;;5090624;28;20452;-76
2023/05/09 00:17:15;;;;;;;49.20;24.17;;;15.10;99.90;;;;;;5090954;28;20127;-77
2023/05/09 00:19:42;;;;;;;44.55;22.85;;;15.00;99.90;;;;;;5090665;28;20101;-76
2023/05/09 00:22:08;;;;;;;44.22;23.08;;;15.00;99.90;;;;;;5091060;28;20040;-76
2023/05/09 00:24:34;;;;;;;42.72;22.58;;;15.10;99.90;;;;;;5090626;28;20123;-76
2023/05/09 00:26:59;;;;;;;43.85;23.42;;;15.00;99.90;;;;;;5090703;28;20376;-76
2023/05/09 00:29:25;;;;;;;41.08;22.10;;;15.00;99.90;;;;;;5090558;28;20060;-76
2023/05/09 00:31:50;;;;;;;45.05;24.15;;;15.00;99.90;;;;;;5090798;28;20065;-76
2023/05/09 00:34:16;;;;;;;43.75;22.63;;;14.90;99.90;;;;;;5091440;28;20111;-77
2023/05/09 00:36:41;;;;;;;42.60;22.20;;;15.00;99.90;;;;;;5091393;28;20412;-77
2023/05/09 00:39:07;;;;;;;41.35;22.45;;;15.00;99.90;;;;;;5091054;28;20470;-77
2023/05/09 00:41:32;;;;;;;40.10;20.77;;;15.00;99.90;;;;;;5091254;28;20039;-77
2023/05/09 00:43:58;;;;;;;40.85;21.52;;;14.90;99.90;;;;;;5091862;28;20085;-77
2023/05/09 00:46:24;;;;;;;41.22;21.60;;;14.90;99.90;;;;;;5091722;28;20047;-77
2023/05/09 00:48:51;;;;;;;43.17;23.00;;;14.90;99.90;;;;;;5092168;28;20046;-77
2023/05/09 00:51:17;;;;;;;43.13;21.83;;;14.90;99.90;;;;;;5091861;28;20036;-77
2023/05/09 00:53:43;;;;;;;43.55;24.05;;;14.90;99.90;;;;;;5092040;28;20059;-77
2023/05/09 00:56:10;;;;;;;45.38;23.48;;;14.90;99.90;;;;;;5098737;28;20540;-77
2023/05/09 00:58:36;;;;;;;45.05;24.27;;;14.90;99.90;;;;;;5099249;28;20116;-77
2023/05/09 01:01:02;;;;;;;50.15;25.02;;;14.90;99.90;;;;;;5091923;28;20107;-77
2023/05/09 01:03:28;;;;;;;46.42;24.95;;;14.90;99.90;;;;;;5092225;28;20056;-78
2023/05/09 01:06:38;;;;;;;49.97;26.15;;;14.80;99.90;;;;;;5092116;28;20048;-78
2023/05/09 01:09:21;;;;;;;45.15;24.80;;;14.80;99.90;;;;;;5033799;28;20033;-79
2023/05/09 01:12:14;;;;;;;46.85;24.90;;;14.80;99.90;;;;;;5017989;28;20040;-79
2023/05/09 01:15:03;;;;;;;45.40;24.88;;;14.80;99.90;;;;;;5081774;28;20055;-78
2023/05/09 01:17:43;;;;;;;45.55;25.02;;;14.80;99.90;;;;;;5092439;28;20085;-78
2023/05/09 01:20:17;;;;;;;43.20;24.02;;;14.80;99.90;;;;;;5079874;28;20044;-78
2023/05/09 01:22:47;;;;;;;47.45;25.83;;;14.80;99.90;;;;;;5092631;28;20128;-78
2023/05/09 01:25:43;;;;;;;47.75;25.45;;;14.80;99.90;;;;;;5093518;28;20115;-78
2023/05/09 01:28:22;;;;;;;46.45;25.05;;;14.80;99.90;;;;;;5092158;28;20436;-78
2023/05/09 01:30:52;;;;;;;50.17;25.77;;;14.80;99.90;;;;;;5109390;28;20040;-78
2023/05/09 01:33:19;;;;;;;46.75;25.88;;;14.80;99.90;;;;;;5093175;28;20043;-79
2023/05/09 01:35:51;;;;;;;44.53;24.90;;;14.70;99.90;;;;;;5110452;28;20043;-78
2023/05/09 01:38:20;;;;;;;46.40;26.42;;;14.80;99.90;;;;;;5091483;28;20032;-78
2023/05/09 01:40:50;;;;;;;44.40;24.40;;;14.80;99.90;;;;;;5092235;28;20040;-79
2023/05/09 01:43:18;;;;;;;47.03;24.77;;;14.80;99.90;;;;;;5092382;28;20067;-79
2023/05/09 01:45:44;;;;;;;47.60;25.88;;;14.80;99.90;;;;;;5091970;28;20038;-78
2023/05/09 01:48:11;;;;;;;49.17;25.45;;;14.70;99.90;;;;;;5091842;28;20377;-79
2023/05/09 01:50:39;;;;;;;41.78;23.55;;;14.80;99.90;;;;;;5091547;28;20036;-79
2023/05/09 01:53:06;;;;;;;43.58;23.88;;;14.80;99.90;;;;;;5091748;28;20048;-78
2023/05/09 01:55:35;;;;;;;44.25;24.27;;;14.70;99.90;;;;;;5092566;28;20104;-78
2023/05/09 01:58:03;;;;;;;44.60;24.95;;;14.70;99.90;;;;;;5104068;28;20052;-79
2023/05/09 02:00:30;;;;;;;42.97;24.23;;;14.70;99.90;;;;;;5091769;28;20078;-78
2023/05/09 02:02:57;;;;;;;46.92;25.35;;;14.70;99.90;;;;;;5109132;28;20048;-78
2023/05/09 02:05:27;;;;;;;44.25;23.42;;;14.60;99.90;;;;;;5091786;28;20032;-79
2023/05/09 02:07:56;;;;;;;43.30;24.75;;;14.60;99.90;;;;;;5092076;28;20044;-79
2023/05/09 02:10:24;;;;;;;44.00;24.90;;;14.60;99.90;;;;;;5091702;28;20085;-78
2023/05/09 02:12:50;;;;;;;50.72;25.95;;;14.70;99.90;;;;;;5091976;28;20411;-79
2023/05/09 02:15:15;;;;;;;48.97;26.33;;;14.70;99.90;;;;;;5075211;28;20079;-78
2023/05/09 02:17:41;;;;;;;47.03;24.25;;;14.70;99.90;;;;;;5092410;28;20040;-79
2023/05/09 02:20:08;;;;;;;48.45;24.80;;;14.70;99.90;;;;;;5095292;28;20040;-79
2023/05/09 02:22:35;;;;;;;40.95;24.48;;;14.80;99.90;;;;;;5078317;28;20040;-78
2023/05/09 02:25:03;;;;;;;44.30;24.00;;;14.70;99.90;;;;;;5095249;28;20043;-78
2023/05/09 02:27:31;;;;;;;43.45;24.27;;;14.70;99.90;;;;;;5094236;28;20036;-78
2023/05/09 02:30:00;;;;;;;42.60;24.48;;;14.70;99.90;;;;;;5077177;28;20063;-78
2023/05/09 02:32:29;;;;;;;45.10;23.50;;;14.70;99.90;;;;;;5093285;28;20139;-78
2023/05/09 02:34:56;;;;;;;41.53;21.25;;;14.70;99.90;;;;;;5093182;28;20032;-77
2023/05/09 02:37:22;;;;;;;38.30;20.85;;;14.70;99.90;;;;;;5092947;28;20051;-78
2023/05/09 02:39:48;;;;;;;41.03;24.10;;;14.60;99.90;;;;;;5092930;28;20032;-77
2023/05/09 02:42:21;;;;;;;41.50;23.20;;;14.60;99.90;;;;;;5093210;28;20093;-77
2023/05/09 02:44:46;;;;;;;39.28;21.85;;;14.60;99.90;;;;;;5093326;28;20071;-78
2023/05/09 02:47:12;;;;;;;37.92;21.55;;;14.60;99.90;;;;;;5093448;28;20079;-77
2023/05/09 02:49:37;;;;;;;39.60;22.35;;;14.60;99.90;;;;;;5093277;28;20039;-77
2023/05/09 02:52:03;;;;;;;44.15;22.83;;;14.50;99.90;;;;;;5093029;28;20031;-77
2023/05/09 02:54:29;;;;;;;40.80;22.27;;;14.50;99.90;;;;;;5092862;28;20044;-77
2023/05/09 02:56:54;;;;;;;46.53;24.80;;;14.50;99.90;;;;;;5105792;28;20097;-77
2023/05/09 02:59:20;;;;;;;45.05;24.65;;;14.50;99.90;;;;;;5093846;28;20078;-77
2023/05/09 03:01:46;;;;;;;43.42;23.00;;;14.50;99.90;;;;;;5092841;28;20057;-77
2023/05/09 03:04:11;;;;;;;41.40;24.08;;;14.50;99.90;;;;;;5093055;28;20100;-77
2023/05/09 03:06:37;;;;;;;41.95;23.95;;;14.40;99.90;;;;;;5092601;28;20032;-77
2023/05/09 03:09:03;;;;;;;46.20;24.95;;;14.40;99.90;;;;;;5092965;28;20036;-77
2023/05/09 03:11:29;;;;;;;45.03;24.75;;;14.40;99.90;;;;;;5076426;28;20051;-77
2023/05/09 03:13:55;;;;;;;47.05;24.95;;;14.50;99.90;;;;;;5093030;28;20063;-77
2023/05/09 03:16:21;;;;;;;45.20;25.02;;;14.50;99.90;;;;;;5075940;28;20074;-77
2023/05/09 03:18:46;;;;;;;49.25;25.67;;;14.40;99.90;;;;;;5093058;28;20081;-77
2023/05/09 03:21:12;;;;;;;46.70;25.30;;;14.40;99.90;;;;;;5093228;28;20161;-77
2023/05/09 03:23:38;;;;;;;53.22;26.17;;;14.40;99.90;;;;;;5092256;28;20036;-77
2023/05/09 03:26:03;;;;;;;42.20;22.58;;;14.40;99.90;;;;;;5092352;28;20058;-77
2023/05/09 03:28:29;;;;;;;41.22;23.40;;;14.40;99.90;;;;;;5092389;28;20043;-77
2023/05/09 03:30:55;;;;;;;43.63;24.67;;;14.40;99.90;;;;;;5092097;28;20040;-77
2023/05/09 03:33:20;;;;;;;40.83;21.52;;;14.40;99.90;;;;;;5092755;28;20431;-77
2023/05/09 03:35:46;;;;;;;67.93;27.65;;;14.40;99.90;;;;;;5093943;28;20519;-77
2023/05/09 03:38:11;;;;;;;41.95;24.73;;;14.30;99.90;;;;;;5093391;28;20040;-77
2023/05/09 03:40:37;;;;;;;46.70;25.88;;;14.30;99.90;;;;;;5068182;28;20066;-77
2023/05/09 03:43:03;;;;;;;42.13;23.30;;;14.40;99.90;;;;;;5088129;28;20044;-77
2023/05/09 03:45:28;;;;;;;44.47;25.05;;;14.30;99.90;;;;;;5093300;28;20398;-77
2023/05/09 03:47:54;;;;;;;47.22;24.80;;;14.30;99.90;;;;;;5093130;28;20040;-77
2023/05/09 03:50:19;;;;;;;45.50;24.90;;;14.30;99.90;;;;;;5093535;28;20032;-78
2023/05/09 03:52:45;;;;;;;42.78;24.50;;;14.20;99.90;;;;;;5093292;28;20044;-78
2023/05/09 03:55:10;;;;;;;42.97;24.67;;;14.30;99.90;;;;;;5092605;28;20059;-78
2023/05/09 03:57:36;;;;;;;36.42;20.83;;;14.30;99.90;;;;;;5107795;28;20384;-77
2023/05/09 04:00:04;;;;;;;42.97;21.20;;;14.30;99.90;;;;;;5075750;28;20085;-78
2023/05/09 04:02:31;;;;;;;33.03;19.10;;;14.20;99.90;;;;;;5092236;28;20048;-78
2023/05/09 04:04:57;;;;;;;32.58;19.70;;;14.20;99.90;;;;;;5092780;28;20115;-78
2023/05/09 04:07:22;;;;;;;39.63;22.02;;;14.30;99.90;;;;;;5092123;28;20111;-78
2023/05/09 04:09:49;;;;;;;37.83;22.50;;;14.30;99.90;;;;;;5075832;28;20036;-78
2023/05/09 04:12:14;;;;;;;40.03;22.65;;;14.30;99.90;;;;;;5092468;28;20143;-78
2023/05/09 04:14:40;;;;;;;41.60;21.88;;;14.30;99.90;;;;;;5109310;28;20118;-78
2023/05/09 04:17:05;;;;;;;40.45;24.20;;;14.30;99.90;;;;;;5092117;28;20089;-78
2023/05/09 04:19:31;;;;;;;45.63;25.67;;;14.30;99.90;;;;;;5091716;28;20074;-78
2023/05/09 04:21:57;;;;;;;53.83;25.95;;;14.40;99.90;;;;;;5092154;28;20519;-78
2023/05/09 04:24:22;;;;;;;56.83;28.58;;;14.40;99.90;;;;;;5092436;28;20526;-78
2023/05/09 04:26:48;;;;;;;60.38;29.88;;;14.40;99.90;;;;;;5092260;28;20067;-78
2023/05/09 04:29:14;;;;;;;60.92;31.05;;;14.40;99.90;;;;;;5092122;28;20460;-78
2023/05/09 04:31:39;;;;;;;59.70;30.17;;;14.40;99.90;;;;;;5092945;28;20105;-79
2023/05/09 04:34:05;;;;;;;65.22;30.80;;;14.50;99.90;;;;;;5093761;28;20036;-79
2023/05/09 04:36:32;;;;;;;58.88;30.10;;;14.50;99.90;;;;;;5093776;28;21977;-79
2023/05/09 04:38:58;;;;;;;62.33;32.17;;;14.50;99.90;;;;;;5077302;28;20043;-79
2023/05/09 04:41:23;;;;;;;64.85;31.90;;;14.50;99.90;;;;;;5094508;28;20036;-79
2023/05/09 04:43:49;;;;;;;59.65;31.73;;;14.50;99.90;;;;;;5094596;28;20043;-78
2023/05/09 04:46:15;;;;;;;71.22;36.33;;;14.60;99.90;;;;;;5094602;28;20105;-78
2023/05/09 04:48:40;;;;;;;65.28;34.25;;;14.60;99.90;;;;;;5077415;28;20036;-79
2023/05/09 04:51:06;;;;;;;65.82;34.38;;;14.60;99.90;;;;;;5094036;28;20035;-79
2023/05/09 04:53:33;;;;;;;65.07;34.60;;;14.60;99.90;;;;;;5093061;28;20051;-79
2023/05/09 04:55:58;;;;;;;66.88;36.20;;;14.70;99.90;;;;;;5081260;28;20127;-79
2023/05/09 04:58:25;;;;;;;75.60;36.60;;;14.70;99.90;;;;;;5102307;28;20059;-79
2023/05/09 05:00:51;;;;;;;71.60;35.50;;;14.70;99.90;;;;;;5063268;28;20069;-79
2023/05/09 05:03:17;;;;;;;68.35;35.45;;;14.80;99.90;;;;;;5094087;28;20040;-79
2023/05/09 05:05:42;;;;;;;73.38;37.15;;;14.80;99.90;;;;;;5093493;28;20047;-79
2023/05/09 05:08:08;;;;;;;72.35;35.78;;;14.80;99.90;;;;;;5077450;28;20055;-79
2023/05/09 05:10:33;;;;;;;70.82;37.70;;;14.80;99.90;;;;;;5094467;28;20031;-79
2023/05/09 05:12:59;;;;;;;78.18;40.28;;;14.90;99.90;;;;;;5094197;28;20040;-80
2023/05/09 05:15:25;;;;;;;81.00;39.88;;;14.90;99.90;;;;;;5095415;28;20389;-79
2023/05/09 05:17:51;;;;;;;78.88;40.25;;;14.90;99.90;;;;;;5094761;28;20040;-79
2023/05/09 05:20:17;;;;;;;80.38;40.20;;;14.90;99.90;;;;;;5094424;28;20128;-79
2023/05/09 05:22:42;;;;;;;80.70;38.67;;;14.90;99.90;;;;;;5094547;28;20437;-79
2023/05/09 05:25:08;;;;;;;87.75;42.88;;;15.00;99.90;;;;;;5077930;28;20043;-79
2023/05/09 05:27:34;;;;;;;78.20;40.45;;;15.00;99.90;;;;;;5094943;28;20035;-78
2023/05/09 05:29:59;;;;;;;77.22;39.30;;;15.00;99.90;;;;;;5093575;28;20074;-78
2023/05/09 05:32:25;;;;;;;79.43;40.28;;;15.00;99.90;;;;;;5094157;28;20047;-79
2023/05/09 05:34:51;;;;;;;78.13;40.50;;;15.00;99.90;;;;;;5093541;28;20087;-78
2023/05/09 05:37:16;;;;;;;83.80;40.63;;;15.00;99.90;;;;;;5093525;28;20055;-78
2023/05/09 05:39:42;;;;;;;85.93;42.13;;;15.10;99.90;;;;;;5093006;28;20068;-79
2023/05/09 05:42:07;;;;;;;78.43;40.60;;;15.10;99.90;;;;;;5093700;28;20122;-79
2023/05/09 05:44:33;;;;;;;100.75;44.08;;;15.10;99.90;;;;;;5092489;28;20466;-78
2023/05/09 05:46:58;;;;;;;87.32;42.08;;;15.10;99.90;;;;;;5093091;28;20039;-79
2023/05/09 05:49:24;;;;;;;82.13;41.97;;;15.10;99.90;;;;;;5092358;28;20036;-78
2023/05/09 05:51:50;;;;;;;82.95;42.17;;;15.20;99.90;;;;;;5092803;28;20510;-78
2023/05/09 05:54:15;;;;;;;86.50;42.38;;;15.20;99.90;;;;;;5094991;28;20135;-78
2023/05/09 05:56:41;;;;;;;79.50;41.38;;;15.20;99.90;;;;;;5089272;28;20496;-78
2023/05/09 05:59:07;;;;;;;79.40;40.67;;;15.20;99.90;;;;;;5098257;28;20052;-78
2023/05/09 06:01:32;;;;;;;82.00;42.30;;;15.30;99.90;;;;;;5095799;28;20039;-78
2023/05/09 06:03:58;;;;;;;82.57;41.55;;;15.30;99.90;;;;;;5095941;28;20032;-78
2023/05/09 06:06:25;;;;;;;85.72;41.60;;;15.30;99.90;;;;;;5095919;28;20031;-77
2023/05/09 06:08:50;;;;;;;71.90;40.17;;;15.40;99.90;;;;;;5096527;28;20032;-77
2023/05/09 06:11:16;;;;;;;77.03;41.65;;;15.40;99.90;;;;;;5096638;28;20039;-77
2023/05/09 06:13:42;;;;;;;73.82;39.60;;;15.50;99.90;;;;;;5096300;28;20043;-78
2023/05/09 06:16:08;;;;;;;72.43;40.10;;;15.60;99.90;;;;;;5096346;28;20036;-77
2023/05/09 06:18:36;;;;;;;73.00;41.13;;;15.60;99.90;;;;;;5094102;28;20038;-77
2023/05/09 06:21:02;;;;;;;80.78;43.05;;;15.70;99.90;;;;;;5096606;28;20463;-77
2023/05/09 06:23:28;;;;;;;78.30;42.15;;;15.70;99.90;;;;;;5094916;28;20115;-76
2023/05/09 06:25:53;;;;;;;94.32;43.72;;;15.70;99.90;;;;;;5095690;28;20063;-77
2023/05/09 06:28:19;;;;;;;74.03;41.67;;;15.80;99.90;;;;;;5096123;28;20028;-77
2023/05/09 06:30:44;;;;;;;77.00;42.20;;;15.80;99.90;;;;;;5094036;28;20119;-77
2023/05/09 06:33:10;;;;;;;70.55;40.72;;;15.80;99.90;;;;;;5096075;28;20158;-77
2023/05/09 06:35:35;;;;;;;82.05;42.38;;;15.90;99.90;;;;;;5079295;28;20082;-78
2023/05/09 06:38:01;;;;;;;71.97;40.90;;;15.90;99.90;;;;;;5096788;28;20051;-78
2023/05/09 06:40:26;;;;;;;71.75;40.85;;;16.00;99.90;;;;;;5095434;28;20032;-77
2023/05/09 06:42:52;;;;;;;75.97;42.00;;;16.00;99.90;;;;;;5095912;28;20085;-77
2023/05/09 06:45:17;;;;;;;71.15;39.50;;;16.00;99.90;;;;;;5095262;28;20383;-78
2023/05/09 06:47:43;;;;;;;70.53;37.65;;;16.10;99.90;;;;;;5095069;28;20036;-78
2023/05/09 06:50:09;;;;;;;58.40;35.67;;;16.10;99.90;;;;;;5095211;28;20036;-79
2023/05/09 06:52:34;;;;;;;55.22;33.03;;;16.00;99.90;;;;;;5095979;28;20126;-77
2023/05/09 06:55:00;;;;;;;52.90;33.40;;;16.00;99.90;;;;;;5095849;28;20500;-77
2023/05/09 06:57:25;;;;;;;53.35;33.08;;;16.00;99.90;;;;;;5110454;28;20036;-77
2023/05/09 06:59:51;;;;;;;47.28;29.60;;;16.00;99.90;;;;;;5094696;28;20050;-77
2023/05/09 07:02:17;;;;;;;46.40;30.27;;;16.00;99.90;;;;;;5096073;28;20410;-77
2023/05/09 07:04:42;;;;;;;43.63;29.05;;;16.00;99.90;;;;;;5093491;28;20085;-77
2023/05/09 07:07:08;;;;;;;41.53;28.10;;;16.00;99.90;;;;;;5096274;28;20473;-78
2023/05/09 07:09:33;;;;;;;46.50;29.92;;;16.00;99.90;;;;;;5095752;28;20032;-78
2023/05/09 07:12:00;;;;;;;47.15;28.33;;;16.00;99.90;;;;;;5084678;28;20044;-78
2023/05/09 07:14:26;;;;;;;39.90;27.15;;;16.00;99.90;;;;;;5092161;28;20097;-78
2023/05/09 07:16:51;;;;;;;45.22;28.55;;;16.00;99.90;;;;;;5095613;28;20447;-78
2023/05/09 07:19:17;;;;;;;46.53;29.20;;;16.00;99.90;;;;;;5093882;28;20047;-78
2023/05/09 07:21:42;;;;;;;45.40;28.55;;;16.00;99.90;;;;;;5094941;28;20411;-78
2023/05/09 07:24:08;;;;;;;48.20;28.48;;;16.00;99.90;;;;;;5096136;28;20032;-78
2023/05/09 07:26:36;;;;;;;46.00;28.63;;;16.00;99.90;;;;;;5095520;28;20039;-78
2023/05/09 07:29:02;;;;;;;47.13;29.38;;;16.00;99.90;;;;;;5077884;28;20036;-78
2023/05/09 07:31:28;;;;;;;49.25;30.15;;;16.10;99.90;;;;;;5093565;28;20083;-77
2023/05/09 07:33:54;;;;;;;52.80;30.58;;;16.10;99.90;;;;;;5094957;28;20051;-78
2023/05/09 07:36:19;;;;;;;53.00;29.60;;;16.20;99.90;;;;;;5094094;28;20072;-78
2023/05/09 07:38:46;;;;;;;53.00;30.65;;;16.30;99.90;;;;;;5094108;28;20500;-78
2023/05/09 07:41:12;;;;;;;47.28;29.63;;;16.30;99.90;;;;;;5094258;28;20055;-78
2023/05/09 07:43:38;;;;;;;52.25;30.65;;;16.50;99.90;;;;;;5094174;28;20028;-78
2023/05/09 07:46:03;;;;;;;52.80;30.77;;;16.60;99.90;;;;;;5094906;28;20036;-78
2023/05/09 07:48:29;;;;;;;53.25;31.58;;;16.70;99.90;;;;;;5094562;28;20088;-78
2023/05/09 07:50:54;;;;;;;55.97;30.92;;;16.70;99.90;;;;;;5111777;28;20028;-78
2023/05/09 07:53:20;;;;;;;54.17;30.90;;;16.80;99.90;;;;;;5094533;28;20392;-78
2023/05/09 07:55:48;;;;;;;52.35;32.15;;;16.80;99.90;;;;;;5115713;28;20540;-78
2023/05/09 07:58:15;;;;;;;54.25;31.88;;;16.80;99.90;;;;;;5106052;28;20046;-79
2023/05/09 08:00:41;;;;;;;52.47;32.22;;;16.80;99.90;;;;;;5111674;28;20119;-79
2023/05/09 08:03:06;;;;;;;52.90;30.08;;;16.70;99.90;;;;;;5096933;28;20071;-79
2023/05/09 08:05:32;;;;;;;52.30;30.60;;;16.70;99.90;;;;;;5096212;28;20035;-79
2023/05/09 08:07:58;;;;;;;55.63;31.95;;;16.70;99.90;;;;;;5094730;28;20514;-79
2023/05/09 08:10:23;;;;;;;59.20;32.67;;;16.70;99.90;;;;;;5095576;28;20111;-79
2023/05/09 08:12:49;;;;;;;55.08;32.22;;;16.70;99.90;;;;;;5096681;28;20090;-79
2023/05/09 08:15:15;;;;;;;58.65;31.75;;;16.70;99.90;;;;;;5082141;28;20053;-80
2023/05/09 08:17:41;;;;;;;52.33;30.92;;;16.70;99.90;;;;;;5101453;28;20122;-79
2023/05/09 08:20:07;;;;;;;58.40;32.95;;;16.80;99.90;;;;;;5101493;28;20133;-79
2023/05/09 08:22:33;;;;;;;58.90;33.17;;;16.80;99.90;;;;;;5101847;28;20051;-80
2023/05/09 08:24:58;;;;;;;62.55;32.10;;;16.80;99.90;;;;;;5085932;28;20506;-80
2023/05/09 08:27:25;;;;;;;55.78;32.05;;;16.80;99.90;;;;;;5102900;28;20411;-81
2023/05/09 08:29:50;;;;;;;55.92;33.00;;;16.80;99.90;;;;;;5103993;28;20226;-81
2023/05/09 08:32:16;;;;;;;59.10;32.58;;;16.80;99.90;;;;;;5105250;28;20043;-81
2023/05/09 08:34:42;;;;;;;52.58;32.45;;;16.80;99.90;;;;;;5103590;28;20067;-81
2023/05/09 08:37:07;;;;;;;57.45;33.92;;;16.70;99.90;;;;;;5102499;28;20048;-81
2023/05/09 08:39:36;;;;;;;55.35;32.20;;;16.80;99.90;;;;;;5103365;28;20086;-81
2023/05/09 08:42:02;;;;;;;49.55;30.17;;;16.70;99.90;;;;;;5104083;28;20036;-81
2023/05/09 08:44:30;;;;;;;59.10;31.90;;;16.70;99.90;;;;;;5103273;28;20450;-81
2023/05/09 08:46:59;;;;;;;56.63;31.10;;;16.70;99.90;;;;;;5103152;28;20028;-82
2023/05/09 08:49:25;;;;;;;52.10;31.38;;;16.70;99.90;;;;;;5100545;28;20047;-82
2023/05/09 08:51:51;;;;;;;54.95;32.42;;;16.70;99.90;;;;;;5103181;28;20054;-83
2023/05/09 08:54:18;;;;;;;52.92;31.98;;;16.70;99.90;;;;;;5103282;28;20044;-83
2023/05/09 08:56:44;;;;;;;58.95;33.13;;;16.80;99.90;;;;;;5076775;28;20040;-84
2023/05/09 08:59:09;;;;;;;50.78;31.42;;;16.90;99.90;;;;;;5059575;28;20071;-84
2023/05/09 09:01:35;;;;;;;52.63;30.98;;;16.90;99.90;;;;;;5090588;28;20518;-84
2023/05/09 09:04:07;;;;;;;51.00;29.77;;;17.00;99.90;;;;;;5090517;28;20418;-82
2023/05/09 09:06:34;;;;;;;52.55;31.65;;;17.10;99.90;;;;;;5073500;28;20032;-84
2023/05/09 09:09:01;;;;;;;49.03;30.02;;;17.10;99.90;;;;;;5073909;28;20070;-82
2023/05/09 09:11:27;;;;;;;50.47;30.05;;;17.10;99.90;;;;;;5073565;28;20032;-83
2023/05/09 09:13:54;;;;;;;48.20;31.45;;;17.10;99.90;;;;;;5091102;28;20040;-82
2023/05/09 09:16:23;;;;;;;52.50;30.42;;;17.20;99.90;;;;;;5076293;28;20514;-83
2023/05/09 09:18:51;;;;;;;49.83;30.73;;;17.30;99.90;;;;;;5073473;28;20539;-83
2023/05/09 09:21:18;;;;;;;52.05;30.60;;;17.30;99.90;;;;;;5090432;28;20035;-82
2023/05/09 09:23:47;;;;;;;52.10;29.75;;;17.40;99.90;;;;;;5073467;28;20161;-82
2023/05/09 09:26:13;;;;;;;51.78;30.65;;;17.40;99.90;;;;;;5094313;28;20059;-82
2023/05/09 09:28:39;;;;;;;81.55;33.00;;;17.40;99.90;;;;;;5072524;28;20031;-82
2023/05/09 09:31:22;;;;;;;60.67;31.08;;;17.50;99.90;;;;;;5090123;28;20448;-83
2023/05/09 09:33:48;;;;;;;48.28;30.48;;;17.50;99.90;;;;;;5053174;28;20040;-83
2023/05/09 09:36:13;;;;;;;47.30;31.05;;;17.50;99.90;;;;;;5084554;28;20392;-83
2023/05/09 09:38:41;;;;;;;52.10;29.23;;;17.40;99.90;;;;;;5089995;28;20036;-83
2023/05/09 09:41:07;;;;;;;48.58;29.92;;;17.30;99.90;;;;;;5073039;28;20491;-83
2023/05/09 09:43:32;;;;;;;45.85;27.73;;;17.30;99.90;;;;;;5089933;28;20036;-83
2023/05/09 09:46:02;;;;;;;45.58;27.52;;;17.30;99.90;;;;;;5090285;28;20036;-84
2023/05/09 09:48:33;;;;;;;43.67;27.38;;;17.30;99.90;;;;;;5075526;28;20509;-84
2023/05/09 09:51:12;;;;;;;45.88;27.27;;;17.30;99.90;;;;;;5090382;28;20449;-84
2023/05/09 09:53:42;;;;;;;40.67;25.83;;;17.30;99.90;;;;;;5089586;28;20039;-84
2023/05/09 09:56:08;;;;;;;41.53;26.77;;;17.40;99.90;;;;;;5073191;28;20488;-85
2023/05/09 09:58:34;;;;;;;38.72;24.48;;;17.50;99.90;;;;;;5060465;28;20040;-83
2023/05/09 10:01:08;;;;;;;42.17;24.75;;;17.60;99.90;;;;;;5088002;28;20118;-83
2023/05/09 10:03:37;;;;;;;;;;;17.80;99.90;;;;;;5107544;28;20047;-84
2023/05/09 10:06:03;;;;;;;41.10;25.42;;;18.00;99.90;;;;;;5054828;28;19963;-84
2023/05/09 10:08:28;;;;;;;40.72;24.65;;;18.30;99.90;;;;;;5079541;28;20063;-84
2023/05/09 10:10:54;;;;;;;42.92;24.08;;;18.50;99.90;;;;;;5090014;28;20043;-84
2023/05/09 10:13:20;;;;;;;40.42;25.65;;;18.60;99.90;;;;;;5089520;28;20059;-84
2023/05/09 10:15:46;;;;;;;37.47;24.25;;;18.70;99.90;;;;;;5089916;28;20196;-85
2023/05/09 10:18:18;;;;;;;34.65;21.80;;;18.80;99.90;;;;;;5072803;28;20112;-83
2023/05/09 10:20:44;;;;;;;35.78;22.95;;;18.80;99.90;;;;;;5090008;28;20047;-84
2023/05/09 10:23:11;;;;;;;32.25;21.35;;;18.90;99.90;;;;;;5072606;28;20053;-84
2023/05/09 10:25:56;;;;;;;29.13;20.27;;;18.80;99.90;;;;;;5072468;28;20036;-86
2023/05/09 10:28:24;;;;;;;32.50;20.90;;;18.70;99.90;;;;;;5068827;28;20034;-83
2023/05/09 10:30:53;;;;;;;30.38;20.67;;;18.70;99.90;;;;;;5077560;28;20044;-84
2023/05/09 10:33:25;;;;;;;29.90;20.17;;;18.70;99.90;;;;;;5073816;28;20044;-84
2023/05/09 10:35:52;;;;;;;27.60;18.75;;;18.70;99.90;;;;;;5084092;28;20063;-83
2023/05/09 10:38:18;;;;;;;28.08;19.63;;;18.70;99.90;;;;;;5091983;28;20032;-84
2023/05/09 10:40:46;;;;;;;24.45;17.70;;;18.80;99.90;;;;;;5093324;28;20058;-84
2023/05/09 10:43:13;;;;;;;25.02;17.80;;;18.70;99.90;;;;;;5093629;28;20108;-84
2023/05/09 10:45:39;;;;;;;22.40;16.60;;;18.60;99.90;;;;;;5093526;28;20039;-82
2023/05/09 10:48:07;;;;;;;24.90;17.80;;;18.60;99.90;;;;;;5078901;28;20044;-82
2023/05/09 10:50:34;;;;;;;23.85;16.67;;;18.60;99.90;;;;;;5109960;28;20061;-82
2023/05/09 10:53:04;;;;;;;22.38;16.50;;;18.60;99.90;;;;;;5092825;28;20491;-83
2023/05/09 10:55:36;;;;;;;22.83;15.50;;;18.60;99.90;;;;;;5107122;28;20100;-82
2023/05/09 10:58:36;;;;;;;23.63;16.65;;;18.80;99.90;;;;;;5092876;28;20052;-83
2023/05/09 11:01:03;;;;;;;23.48;15.43;;;18.90;99.90;;;;;;5093233;28;20480;-83
2023/05/09 11:03:56;;;;;;;18.92;14.75;;;19.00;99.90;;;;;;5075816;28;20047;-84
2023/05/09 11:06:44;;;;;;;20.58;14.63;;;19.10;99.90;;;;;;5072433;28;20167;-83
2023/05/09 11:09:28;;;;;;;23.77;15.48;;;19.20;99.90;;;;;;5074449;28;20071;-83
2023/05/09 11:11:56;;;;;;;19.77;13.30;;;19.20;99.90;;;;;;5082662;28;20063;-83
2023/05/09 11:14:52;;;;;;;20.48;13.13;;;19.30;99.90;;;;;;5092548;28;20123;-83
2023/05/09 11:17:21;;;;;;;19.60;14.10;;;19.30;99.90;;;;;;5059186;28;20055;-84
2023/05/09 11:19:46;;;;;;;15.80;12.18;;;19.30;99.90;;;;;;5111819;28;20070;-83
2023/05/09 11:22:20;;;;;;;15.30;12.30;;;19.30;99.90;;;;;;5095870;28;20039;-82
2023/05/09 11:24:47;;;;;;;19.05;12.50;;;19.30;99.90;;;;;;5094332;28;20077;-83
2023/05/09 11:27:24;;;;;;;16.45;11.88;;;19.20;99.90;;;;;;5092192;28;20501;-83
2023/05/09 11:29:58;;;;;;;18.48;12.75;;;19.20;99.90;;;;;;5092082;28;20067;-86
2023/05/09 11:32:45;;;;;;;17.60;12.45;;;19.20;99.90;;;;;;5075245;28;20043;-84
2023/05/09 11:35:17;;;;;;;16.35;11.30;;;19.20;99.90;;;;;;5055312;28;20514;-84
2023/05/09 11:37:48;;;;;;;18.13;12.00;;;19.40;99.90;;;;;;5055074;28;20075;-83
2023/05/09 11:40:16;;;;;;;15.55;11.57;;;19.40;99.90;;;;;;5086216;28;20478;-84
2023/05/09 11:42:44;;;;;;;18.45;12.18;;;19.50;99.90;;;;;;5084052;28;20087;-85
2023/05/09 11:45:11;;;;;;;20.60;12.05;;;19.50;99.90;;;;;;5092128;28;20028;-85
2023/05/09 11:47:37;;;;;;;16.98;12.18;;;19.40;99.90;;;;;;5075337;28;20406;-85
2023/05/09 11:50:08;;;;;;;15.80;10.95;;;19.30;99.90;;;;;;5091439;28;20036;-86
2023/05/09 11:52:34;;;;;;;18.40;12.20;;;19.20;99.90;;;;;;5108934;28;20059;-85
2023/05/09 11:55:00;;;;;;;15.90;11.23;;;19.00;99.90;;;;;;5088992;28;20063;-85
2023/05/09 11:57:27;;;;;;;14.13;10.88;;;18.80;99.90;;;;;;5089327;28;20491;-86
2023/05/09 11:59:53;;;;;;;15.45;10.52;;;18.70;99.90;;;;;;5091861;28;20040;-85
2023/05/09 12:02:21;;;;;;;16.02;11.18;;;18.80;99.90;;;;;;5091779;28;20289;-85
2023/05/09 12:04:48;;;;;;;13.77;10.95;;;18.90;99.90;;;;;;5091699;28;20397;-85
2023/05/09 12:07:15;;;;;;;14.32;10.05;;;20.00;99.90;;;;;;5075104;28;20127;-85
2023/05/09 12:09:42;;;;;;;16.25;11.90;;;18.90;99.90;;;;;;5097733;28;20093;-86
2023/05/09 12:12:12;;;;;;;15.25;11.80;;;19.50;99.90;;;;;;5101240;28;20547;-86
2023/05/09 12:14:39;;;;;;;16.20;11.23;;;19.70;99.90;;;;;;5083272;28;20044;-86
2023/05/09 12:17:06;;;;;;;14.77;11.30;;;19.90;99.90;;;;;;5084051;28;20082;-86
2023/05/09 12:19:32;;;;;;;18.35;11.38;;;19.80;99.90;;;;;;5077432;28;20453;-87
2023/05/09 12:21:59;;;;;;;14.75;10.88;;;19.70;99.90;;;;;;5102827;28;20036;-86
2023/05/09 12:24:26;;;;;;;15.45;12.23;;;19.70;99.90;;;;;;5074546;28;20457;-85
2023/05/09 12:26:53;;;;;;;14.25;11.05;;;20.00;99.90;;;;;;5091596;28;20040;-86
2023/05/09 12:29:20;;;;;;;15.65;11.25;;;20.00;99.90;;;;;;5077677;28;20040;-86